x

Stonewall Bank - 20nm West Of Newport, Or (46050) Wave Buoy

8:50pm - Tue 7th Jul 2015 All times are PDT. -7 hours from GMT.

  • Sig Wave height 3.9ft
  • Swell Direction
  • Peak Period 8s
  • Average Period 7s
  • Wind
    9mph
  • Sea Temp 60°f
  • Air Temp 62°f
  • Sea Pressure 1014.1mb
  • Stonewall Bank - 20nm West Of Newport, Or
  • Stonewall Bank - 20nm West Of Newport, Or

More Historic Weather Station data

Upgrade to MSW Pro to gain access to the past 30 days of data for over 8000 Wavebouys and Weather Stations around the globe.

Join Pro

Comparision Forecast

View Surf forecast
   
Tue 07/07 8:50pm 4ft 8s 7s 9
mph
1014.1mb 60f 62f
7:50pm 4ft 9s 7s 9 11 mph 1013.8mb 60f 62f
6:50pm 3.5ft 8s 7s 13 16 mph 1013.2mb 62f 62f
5:50pm 3.5ft 8s 7s 11 13 mph 1013.7mb 62f 62f
4:50pm 4ft 8s 7s 9 11 mph 1014mb 60f 61f
3:50pm 4ft 8s 8s 9 11 mph 1014.6mb 61f 61f
2:50pm 3.5ft 8s 7s 9 11 mph 1015.2mb 61f 60f
1:50pm 3.5ft 8s 7s 7
mph
1015.5mb 62f 59f
12:50pm 4ft 9s 7s 2
mph
1016mb 61f 60f
11:50am 3.5ft 8s 7s 4
mph
1016.4mb 60f 59f
10:50am 3.5ft 8s 7s 4
mph
1016.5mb 59f 59f
9:50am 3.5ft 8s 7s 4
mph
1016.8mb 59f 59f
8:50am 4ft 8s 7s 4 7 mph 1016.9mb 58f 58f
7:50am 4ft 8s 7s 4 7 mph 1016.9mb 58f 58f
6:50am 4ft 8s 7s 4
mph
1017mb 58f 58f
5:50am 4ft 8s 7s 2 4 mph 1016.9mb 58f 58f
4:50am 4ft 8s 7s 4
mph
1016.6mb 58f 57f
3:50am 3.5ft 8s 7s 4 7 mph 1016.7mb 58f 57f
2:50am 3.5ft 8s 7s 2 4 mph 1016.8mb 58f 57f
1:50am 3.5ft 8s 7s 4
mph
1017mb 58f 57f
12:50am 4ft 8s 7s 7
mph
1017.2mb 58f 57f
Mon 07/06 11:50pm 4ft 8s 7s 7 9 mph 1017.3mb 57f 57f
10:50pm 4ft 8s 7s 9 13 mph 1017.5mb 57f 57f
9:50pm 4.5ft 8s 7s 9 11 mph 1017.2mb 57f 57f
8:50pm 4.5ft 9s 7s 11 13 mph 1017.1mb 57f 56f
7:50pm 4ft 8s 7s 9 11 mph 1017mb 57f 56f
6:50pm 4.5ft 8s 7s 9 11 mph 1016.8mb 57f 56f
5:50pm 4ft 8s 7s 9 11 mph 1016.9mb 56f 56f
4:50pm 4.5ft 9s 7s 11 13 mph 1017.2mb 56f 56f
3:50pm 4.5ft 8s 7s 9 11 mph 1017.5mb 56f 56f
2:50pm 4.5ft 8s 7s 9 11 mph 1017.8mb 56f 56f
1:50pm 4.5ft 9s 7s 9 11 mph 1017.8mb 56f 56f
12:50pm 4.5ft 9s 7s 9 11 mph 1017.7mb 56f 55f
11:50am 4.5ft 9s 7s 9
mph
1017.6mb 56f 55f
10:50am 4.5ft 9s 7s 11 13 mph 1017.1mb 56f 55f
9:50am 5ft 9s 7s 13 16 mph 1016.9mb 56f 55f
8:50am 5.5ft 8s 7s 13 16 mph 1016.5mb 56f 55f
7:50am 5ft 9s 7s 13 16 mph 1016.2mb 55f 55f
6:50am 5ft 9s 7s 13 18 mph 1015.6mb 56f 55f
5:50am 5ft 9s 7s 13 16 mph 1015mb 56f 55f
4:50am 5ft 9s 7s 11 13 mph 1014.8mb 56f 55f
3:50am 5.5ft 9s 7s 11 13 mph 1014.5mb 56f 55f
2:50am 5ft 9s 7s 11 13 mph 1014.2mb 56f 55f
1:50am 5.5ft 9s 7s 11 13 mph 1014.2mb 57f 55f
12:50am 5ft 9s 7s 11 16 mph 1014mb 57f 55f
Sun 07/05 11:50pm 5.5ft 10s 7s 13 16 mph 1014mb 57f 55f
10:50pm 6ft 9s 7s 11 13 mph 1013.6mb 57f 56f
9:50pm 6ft 9s 7s 11 13 mph 1013.4mb 57f 55f
8:50pm 6.5ft 9s 7s 11 16 mph 1012.6mb 57f 56f
7:50pm 6ft 9s 7s 13 18 mph 1012.4mb 56f 55f
6:50pm 7ft 9s 7s 16 18 mph 1012.1mb 57f 55f
5:50pm 6ft 10s 7s 13 16 mph 1012.4mb 57f 56f
4:50pm 6.5ft 9s 8s 13 18 mph 1012mb 57f 56f
3:50pm 5.5ft 9s 7s 13 16 mph 1012.2mb 56f 56f
2:50pm 6ft 10s 7s 13 16 mph 1012.2mb 56f 57f
1:50pm 6.5ft 10s 7s 13 18 mph 1012mb 57f 57f
12:50pm 7ft 10s 8s 13 16 mph 1011.7mb 57f 57f
11:50am 7ft 9s 7s 11 16 mph 1011.3mb 57f 57f
10:50am 6.5ft 10s 7s 9 11 mph 1011mb 58f 58f
9:50am 7ft 9s 7s 7 11 mph 1010.7mb 58f 58f
8:50am 7.5ft 9s 8s 7 9 mph 1010.4mb 58f 59f
7:50am 7ft 9s 7s 4 7 mph 1010.1mb 58f 59f
6:50am 7ft 9s 7s 2 4 mph 1010mb 58f 59f
5:50am 6.5ft 9s 7s 2 4 mph 1009.7mb 58f 60f
4:50am 6.5ft 9s 7s 2 7 mph 1009.5mb 58f 60f
3:50am 7ft 9s 7s 4 7 mph 1009.4mb 58f 60f
2:50am 6.5ft 10s 7s 4 7 mph 1009.6mb 58f 60f
1:50am 7ft 9s 7s 7 11 mph 1009.3mb 58f 60f
12:50am 6.5ft 9s 7s 11 13 mph 1009.3mb 59f 60f
Sat 07/04 11:50pm 6ft 9s 7s 9 11 mph 1009.5mb 59f 60f
10:50pm 7ft 9s 7s 2 4 mph 1010.1mb 59f 60f
9:50pm 6.5ft 9s 7s 9 11 mph 1009.5mb 59f 60f
8:50pm 6.5ft 9s 7s 9 13 mph 1009.3mb 58f 61f
7:50pm 6.5ft 9s 7s 9
mph
1009.4mb 59f 61f
6:50pm 6.5ft 10s 7s 9
mph
1009.3mb 59f 62f
5:50pm 7ft 9s 7s 11 13 mph 1009.4mb 60f 62f
4:50pm 7ft 9s 7s 9 11 mph 1009.8mb 60f 61f
3:50pm 7ft 9s 7s 7 9 mph 1010.4mb 60f 61f
2:50pm 7ft 9s 7s 7 9 mph 1010.6mb 61f 61f
1:50pm 6ft 9s 7s 7 9 mph 1010.9mb 60f 61f
12:50pm 6ft 8s 7s 4 7 mph 1011.3mb 61f 61f
11:50am 6ft 8s 6s 2 4 mph 1011.5mb 60f 60f
10:50am 5.5ft 8s 6s  -  2 mph 1011.8mb 59f 59f
7:50am 6ft 8s 6s 4 7 mph 1012.1mb 56f 59f
6:50am 5.5ft 9s 6s 4 7 mph 1012.1mb 56f 58f
5:50am 6ft 8s 6s 7
mph
1012.1mb 55f 58f